createdAt,value
2019-04-10T00:01:17.873Z,0.80
2019-04-10T00:03:46.242Z,1.20
2019-04-10T00:06:17.043Z,1.00
2019-04-10T00:08:44.240Z,1.10
2019-04-10T00:11:12.566Z,1.30
2019-04-10T00:13:40.724Z,0.80
2019-04-10T00:16:08.769Z,1.20
2019-04-10T00:18:36.785Z,1.07
2019-04-10T00:21:05.097Z,1.00
2019-04-10T00:23:33.363Z,1.23
2019-04-10T00:26:01.499Z,1.10
2019-04-10T00:28:29.747Z,1.07
2019-04-10T00:30:57.771Z,0.97
2019-04-10T00:33:25.746Z,1.30
2019-04-10T00:35:54.016Z,1.23
2019-04-10T00:38:22.246Z,1.00
2019-04-10T00:40:50.162Z,1.20
2019-04-10T00:43:19.006Z,1.00
2019-04-10T00:45:47.015Z,0.80
2019-04-10T00:48:15.486Z,0.90
2019-04-10T00:50:44.600Z,1.13
2019-04-10T00:53:12.807Z,1.10
2019-04-10T00:55:44.083Z,1.20
2019-04-10T00:58:12.184Z,1.10
2019-04-10T01:00:41.170Z,1.10
2019-04-10T01:03:09.400Z,0.83
2019-04-10T01:05:37.642Z,1.10
2019-04-10T01:08:06.582Z,0.80
2019-04-10T01:10:34.814Z,0.90
2019-04-10T01:13:02.834Z,0.80
2019-04-10T01:15:30.898Z,0.90
2019-04-10T01:17:59.037Z,1.10
2019-04-10T01:20:26.976Z,0.87
2019-04-10T01:22:55.255Z,0.83
2019-04-10T01:25:24.137Z,1.10
2019-04-10T01:27:52.246Z,0.80
2019-04-10T01:30:20.279Z,0.80
2019-04-10T01:32:48.192Z,0.90
2019-04-10T01:35:16.223Z,1.00
2019-04-10T01:37:51.468Z,0.80
2019-04-10T01:40:14.964Z,0.80
2019-04-10T01:42:43.120Z,0.97
2019-04-10T01:45:11.409Z,0.90
2019-04-10T01:47:39.484Z,1.00
2019-04-10T01:50:08.338Z,1.10
2019-04-10T01:52:37.282Z,0.83
2019-04-10T01:55:17.307Z,0.90
2019-04-10T01:57:35.031Z,0.97
2019-04-10T02:00:03.159Z,1.00
2019-04-10T02:02:41.174Z,1.20
2019-04-10T02:05:09.499Z,1.00
2019-04-10T02:07:38.243Z,1.10
2019-04-10T02:10:06.608Z,1.03
2019-04-10T02:12:34.677Z,0.93
2019-04-10T02:15:03.040Z,1.10
2019-04-10T02:17:31.036Z,1.00
2019-04-10T02:19:58.951Z,1.10
2019-04-10T02:22:26.883Z,1.17
2019-04-10T02:24:55.584Z,0.80
2019-04-10T02:27:24.537Z,1.10
2019-04-10T02:29:52.639Z,0.93
2019-04-10T02:32:21.110Z,1.33
2019-04-10T02:34:50.679Z,1.00
2019-04-10T02:37:19.281Z,1.10
2019-04-10T02:39:51.947Z,1.10
2019-04-10T02:42:18.460Z,1.20
2019-04-10T02:44:48.249Z,1.00
2019-04-10T02:47:16.898Z,1.37
2019-04-10T02:49:46.880Z,1.00
2019-04-10T02:52:14.886Z,1.10
2019-04-10T02:54:43.629Z,1.03
2019-04-10T02:57:13.442Z,1.00
2019-04-10T02:59:43.184Z,1.10
2019-04-10T03:02:11.686Z,1.00
2019-04-10T03:04:40.481Z,1.10
2019-04-10T03:07:09.529Z,1.13
2019-04-10T03:09:53.675Z,1.10
2019-04-10T03:12:08.426Z,1.00
2019-04-10T03:14:36.870Z,1.10
2019-04-10T03:17:05.921Z,1.20
2019-04-10T03:19:34.002Z,1.30
2019-04-10T03:22:01.963Z,1.20
2019-04-10T03:24:29.940Z,1.10
2019-04-10T03:26:58.249Z,1.10
2019-04-10T03:29:26.207Z,1.00
2019-04-10T03:31:55.414Z,1.10
2019-04-10T03:34:28.484Z,1.20
2019-04-10T03:36:56.062Z,1.00
2019-04-10T03:39:24.402Z,1.20
2019-04-10T03:41:52.618Z,1.27
2019-04-10T03:44:20.802Z,1.43
2019-04-10T03:46:49.069Z,1.00
2019-04-10T03:49:17.823Z,1.20
2019-04-10T03:51:47.023Z,1.00
2019-04-10T03:54:15.251Z,1.13
2019-04-10T03:56:43.287Z,1.10
2019-04-10T03:59:11.761Z,1.20
2019-04-10T04:01:40.848Z,1.20
2019-04-10T04:04:09.145Z,1.10
2019-04-10T04:06:37.170Z,1.17
2019-04-10T04:09:10.946Z,1.10
2019-04-10T04:11:35.876Z,1.20
2019-04-10T04:14:04.108Z,1.33
2019-04-10T04:16:33.227Z,1.10
2019-04-10T04:19:01.735Z,1.03
2019-04-10T04:21:30.001Z,1.40
2019-04-10T04:23:58.123Z,0.97
2019-04-10T04:26:28.097Z,0.90
2019-04-10T04:28:56.175Z,1.10
2019-04-10T04:31:24.961Z,1.30
2019-04-10T04:33:53.315Z,1.00
2019-04-10T04:36:21.401Z,1.20
2019-04-10T04:38:49.359Z,0.90
2019-04-10T04:41:17.510Z,1.00
2019-04-10T04:43:47.181Z,1.03
2019-04-10T04:46:16.160Z,1.00
2019-04-10T04:48:44.097Z,0.90
2019-04-10T04:51:12.204Z,0.90
2019-04-10T04:53:40.663Z,1.10
2019-04-10T04:56:09.472Z,1.10
2019-04-10T04:58:38.166Z,1.07
2019-04-10T05:01:06.314Z,1.00
2019-04-10T05:03:35.348Z,1.00
2019-04-10T05:06:03.840Z,1.20
2019-04-10T05:08:32.376Z,1.20
2019-04-10T05:11:00.728Z,1.20
2019-04-10T05:13:28.805Z,1.00
2019-04-10T05:15:57.530Z,1.10
2019-04-10T05:18:25.720Z,1.10
2019-04-10T05:20:54.728Z,1.20
2019-04-10T05:23:22.715Z,1.17
2019-04-10T05:25:51.825Z,1.00
2019-04-10T05:28:20.417Z,1.20
2019-04-10T05:30:48.501Z,1.30
2019-04-10T05:33:16.476Z,1.20
2019-04-10T05:35:44.610Z,1.10
2019-04-10T05:38:12.509Z,1.00
2019-04-10T05:40:40.719Z,1.00
2019-04-10T05:43:09.287Z,1.00
2019-04-10T05:45:38.002Z,0.90
2019-04-10T05:48:06.783Z,1.10
2019-04-10T05:50:35.663Z,0.97
2019-04-10T05:53:04.376Z,1.00
2019-04-10T05:55:33.088Z,1.30
2019-04-10T05:58:01.681Z,1.10
2019-04-10T06:00:30.193Z,1.00
2019-04-10T06:02:58.493Z,1.17
2019-04-10T06:05:26.520Z,1.03
2019-04-10T06:07:57.174Z,1.00
2019-04-10T06:10:26.623Z,1.20
2019-04-10T06:12:55.074Z,1.10
2019-04-10T06:15:23.273Z,0.90
2019-04-10T06:17:51.624Z,0.90
2019-04-10T06:20:20.814Z,0.93
2019-04-10T06:22:49.165Z,1.10
2019-04-10T06:25:19.616Z,1.20
2019-04-10T06:27:46.772Z,1.10
2019-04-10T06:30:15.413Z,1.20
2019-04-10T06:32:45.459Z,1.13
2019-04-10T06:35:13.723Z,1.10
2019-04-10T06:37:42.213Z,1.10
2019-04-10T06:40:16.795Z,1.43
2019-04-10T06:42:48.470Z,1.47
2019-04-10T06:45:09.882Z,1.60
2019-04-10T06:47:38.257Z,1.67
2019-04-10T06:50:07.480Z,1.20
2019-04-10T06:52:35.582Z,1.13
2019-04-10T06:55:04.943Z,1.07
2019-04-10T06:57:45.145Z,1.10
2019-04-10T07:00:02.665Z,1.10
2019-04-10T07:02:32.600Z,1.10
2019-04-10T07:05:05.747Z,1.00
2019-04-10T07:07:42.365Z,1.10
2019-04-10T07:10:00.003Z,1.10
2019-04-10T07:12:32.104Z,1.10
2019-04-10T07:14:58.274Z,1.13
2019-04-10T07:17:27.128Z,1.10
2019-04-10T07:19:55.597Z,1.40
2019-04-10T07:22:24.867Z,0.80
2019-04-10T07:24:52.892Z,0.90
2019-04-10T07:27:21.866Z,0.90
2019-04-10T07:29:51.576Z,1.20
2019-04-10T07:32:19.767Z,0.90
2019-04-10T07:34:48.656Z,1.30
2019-04-10T07:37:18.459Z,0.93
2019-04-10T07:39:46.791Z,1.37
2019-04-10T07:42:26.040Z,0.90
2019-04-10T07:44:44.571Z,1.10
2019-04-10T07:47:13.337Z,0.80
2019-04-10T07:49:41.945Z,1.20
2019-04-10T07:52:10.559Z,1.10
2019-04-10T07:54:40.498Z,1.10
2019-04-10T07:57:08.392Z,1.00
2019-04-10T07:59:37.509Z,1.00
2019-04-10T08:02:08.280Z,1.10
2019-04-10T08:04:35.452Z,1.00
2019-04-10T08:07:05.101Z,0.80
2019-04-10T08:09:33.485Z,1.00
2019-04-10T08:12:01.660Z,1.40
2019-04-10T08:14:29.656Z,1.10
2019-04-10T08:16:57.690Z,1.20
2019-04-10T08:19:27.740Z,1.10
2019-04-10T08:21:55.277Z,1.20
2019-04-10T08:24:23.735Z,1.43
2019-04-10T08:26:52.677Z,1.87
2019-04-10T08:29:21.733Z,2.23
2019-04-10T08:31:50.405Z,1.30
2019-04-10T08:34:19.501Z,1.33
2019-04-10T08:36:47.897Z,1.00
2019-04-10T08:39:28.289Z,1.33
2019-04-10T08:41:46.082Z,1.10
2019-04-10T08:44:14.079Z,1.07
2019-04-10T08:46:42.047Z,1.00
2019-04-10T08:49:10.004Z,1.00
2019-04-10T08:51:38.000Z,0.70
2019-04-10T08:54:05.934Z,0.90
2019-04-10T08:56:33.858Z,1.00
2019-04-10T08:59:01.765Z,1.00
2019-04-10T09:01:30.076Z,1.00
2019-04-10T09:03:57.991Z,1.10
2019-04-10T09:06:25.903Z,1.10
2019-04-10T09:08:54.010Z,1.20
2019-04-10T09:11:26.423Z,1.07
2019-04-10T09:13:52.748Z,1.30
2019-04-10T09:16:20.994Z,0.90
2019-04-10T09:18:49.484Z,1.00
2019-04-10T09:21:17.751Z,1.10
2019-04-10T09:23:52.352Z,0.83
2019-04-10T09:26:15.572Z,0.97
2019-04-10T09:28:43.729Z,1.10
2019-04-10T09:31:11.656Z,1.00
2019-04-10T09:33:39.741Z,0.97
2019-04-10T09:36:07.655Z,1.10
2019-04-10T09:38:36.852Z,1.00
2019-04-10T09:41:05.687Z,1.20
2019-04-10T09:43:33.905Z,1.00
2019-04-10T09:46:02.322Z,1.00
2019-04-10T09:48:31.591Z,1.40
2019-04-10T09:51:00.293Z,1.07
2019-04-10T09:53:28.756Z,1.10
2019-04-10T09:55:56.860Z,1.10
2019-04-10T09:58:24.767Z,0.80
2019-04-10T10:00:52.811Z,0.90
2019-04-10T10:03:20.768Z,1.10
2019-04-10T10:05:48.890Z,1.00
2019-04-10T10:08:16.878Z,1.10
2019-04-10T10:10:45.062Z,1.10
2019-04-10T10:13:13.182Z,0.90
2019-04-10T10:15:41.355Z,0.80
2019-04-10T10:18:09.348Z,1.20
2019-04-10T10:20:37.709Z,1.20
2019-04-10T10:23:05.772Z,1.20
2019-04-10T10:25:33.720Z,1.20
2019-04-10T10:28:02.755Z,1.10
2019-04-10T10:30:31.518Z,1.40
2019-04-10T10:32:59.737Z,1.03
2019-04-10T10:35:27.700Z,0.90
2019-04-10T10:37:56.786Z,1.10
2019-04-10T10:40:25.628Z,1.10
2019-04-10T10:42:54.021Z,1.13
2019-04-10T10:45:22.868Z,1.20
2019-04-10T10:47:51.103Z,1.10
2019-04-10T10:50:19.267Z,1.10
2019-04-10T10:52:47.964Z,1.10
2019-04-10T10:55:17.758Z,1.10
2019-04-10T10:57:47.032Z,1.40
2019-04-10T11:00:17.004Z,1.40
2019-04-10T11:02:45.622Z,1.20
2019-04-10T11:05:13.750Z,1.30
2019-04-10T11:07:42.882Z,1.30
2019-04-10T11:10:12.556Z,1.47
2019-04-10T11:12:40.706Z,1.20
2019-04-10T11:15:09.983Z,1.33
2019-04-10T11:17:38.710Z,1.47
2019-04-10T11:20:08.398Z,1.17
2019-04-10T11:22:37.637Z,1.30
2019-04-10T11:25:06.156Z,1.23
2019-04-10T11:27:34.420Z,1.50
2019-04-10T11:30:05.203Z,1.23
2019-04-10T11:32:33.929Z,1.40
2019-04-10T11:35:03.328Z,1.57
2019-04-10T11:37:40.190Z,1.40
2019-04-10T11:40:02.238Z,1.40
2019-04-10T11:42:32.208Z,1.20
2019-04-10T11:45:01.839Z,1.30
2019-04-10T11:47:31.730Z,1.10
2019-04-10T11:50:01.624Z,1.27
2019-04-10T11:52:36.363Z,1.17
2019-04-10T11:57:30.787Z,1.30
2019-04-10T12:00:01.131Z,1.30
2019-04-10T12:02:30.430Z,1.23
2019-04-10T12:05:03.351Z,1.40
2019-04-10T12:07:55.043Z,1.50
2019-04-10T12:12:27.935Z,1.53
2019-04-10T12:14:56.251Z,1.40
2019-04-10T12:17:24.240Z,1.20
2019-04-10T12:19:52.264Z,1.17
2019-04-10T12:22:21.085Z,1.53
2019-04-10T12:24:50.056Z,1.40
2019-04-10T12:27:19.164Z,1.30
2019-04-10T12:29:47.212Z,1.37
2019-04-10T12:32:15.253Z,1.30
2019-04-10T12:34:44.457Z,1.50
2019-04-10T12:37:13.303Z,1.23
2019-04-10T12:39:41.298Z,1.40
2019-04-10T12:42:10.086Z,1.37
2019-04-10T12:44:39.480Z,1.50
2019-04-10T12:47:07.952Z,1.30
2019-04-10T12:49:36.019Z,1.20
2019-04-10T12:52:04.429Z,1.40
2019-04-10T12:54:33.474Z,1.53
2019-04-10T12:57:02.395Z,1.60
2019-04-10T12:59:31.151Z,1.70
2019-04-10T13:01:59.187Z,1.50
2019-04-10T13:04:28.170Z,1.60
2019-04-10T13:06:56.991Z,1.60
2019-04-10T13:09:26.161Z,1.60
2019-04-10T13:11:54.282Z,1.60
2019-04-10T13:14:22.285Z,1.70
2019-04-10T13:16:50.291Z,1.80
2019-04-10T13:19:18.800Z,1.67
2019-04-10T13:21:47.295Z,1.67
2019-04-10T13:24:15.351Z,1.80
2019-04-10T13:26:43.348Z,1.70
2019-04-10T13:29:11.999Z,1.50
2019-04-10T13:31:40.043Z,1.70
2019-04-10T13:34:09.036Z,1.67
2019-04-10T13:36:37.703Z,1.60
2019-04-10T13:39:06.664Z,1.50
2019-04-10T13:41:34.895Z,1.63
2019-04-10T13:44:02.932Z,1.33
2019-04-10T13:46:31.072Z,1.80
2019-04-10T13:48:59.801Z,1.50
2019-04-10T13:51:27.883Z,1.43
2019-04-10T13:53:56.579Z,1.57
2019-04-10T13:56:25.328Z,1.30
2019-04-10T13:58:53.443Z,1.47
2019-04-10T14:01:28.044Z,1.60
2019-04-10T14:03:56.177Z,1.50
2019-04-10T14:06:24.123Z,1.80
2019-04-10T14:09:07.786Z,1.70
2019-04-10T14:11:21.727Z,1.50
2019-04-10T14:13:49.751Z,1.50
2019-04-10T14:16:17.995Z,1.50
2019-04-10T14:18:46.071Z,1.60
2019-04-10T14:21:16.068Z,1.50
2019-04-10T14:23:45.146Z,1.50
2019-04-10T14:26:43.708Z,1.60
2019-04-10T14:29:16.414Z,1.63
2019-04-10T14:31:49.035Z,1.60
2019-04-10T14:34:18.821Z,1.80
2019-04-10T14:36:46.851Z,1.70
2019-04-10T14:39:19.349Z,1.70
2019-04-10T14:41:46.384Z,1.60
2019-04-10T14:44:14.683Z,1.63
2019-04-10T14:46:42.627Z,1.70
2019-04-10T14:49:11.130Z,1.87
2019-04-10T14:51:39.495Z,2.00
2019-04-10T14:54:08.514Z,1.57
2019-04-10T14:56:36.547Z,1.90
2019-04-10T14:59:04.490Z,1.70
2019-04-10T15:01:33.549Z,2.20
2019-04-10T15:04:02.620Z,1.80
2019-04-10T15:06:31.216Z,1.80
2019-04-10T15:08:59.884Z,2.20
2019-04-10T15:11:28.871Z,1.90
2019-04-10T15:13:57.208Z,1.60
2019-04-10T15:16:25.309Z,1.80
2019-04-10T15:18:54.210Z,1.90
2019-04-10T15:21:22.846Z,2.07
2019-04-10T15:23:51.126Z,2.10
2019-04-10T15:26:19.747Z,1.80
2019-04-10T15:28:47.770Z,1.97
2019-04-10T15:31:15.768Z,2.10
2019-04-10T15:33:44.471Z,2.10
2019-04-10T15:36:12.661Z,2.20
2019-04-10T15:38:40.697Z,2.20
2019-04-10T15:41:08.679Z,1.83
2019-04-10T15:43:37.157Z,1.93
2019-04-10T15:46:05.363Z,2.03
2019-04-10T15:48:33.630Z,2.20
2019-04-10T15:51:01.683Z,2.20
2019-04-10T15:53:29.812Z,1.87
2019-04-10T15:55:57.886Z,2.50
2019-04-10T15:58:25.893Z,2.30
2019-04-10T16:00:53.861Z,2.20
2019-04-10T16:03:22.693Z,2.40
2019-04-10T16:05:50.713Z,2.10
2019-04-10T16:08:20.491Z,1.87
2019-04-10T16:10:55.118Z,1.80
2019-04-10T16:13:38.796Z,2.27
2019-04-10T16:16:25.523Z,2.10
2019-04-10T16:18:59.271Z,2.20
2019-04-10T16:21:27.418Z,2.20
2019-04-10T16:24:00.563Z,2.10
2019-04-10T16:26:29.273Z,2.07
2019-04-10T16:28:57.789Z,2.10
2019-04-10T16:31:25.987Z,2.33
2019-04-10T16:33:54.626Z,2.20
2019-04-10T16:36:23.470Z,1.90
2019-04-10T16:38:51.601Z,2.07
2019-04-10T16:41:19.612Z,2.03
2019-04-10T16:43:48.659Z,2.40
2019-04-10T16:46:17.372Z,2.40
2019-04-10T16:48:46.269Z,2.33
2019-04-10T16:51:14.424Z,2.37
2019-04-10T16:53:44.061Z,2.20
2019-04-10T16:56:12.267Z,3.30
2019-04-10T16:58:41.692Z,2.60
2019-04-10T17:01:10.455Z,2.60
2019-04-10T17:03:38.506Z,3.13
2019-04-10T17:06:06.506Z,3.50
2019-04-10T17:08:34.545Z,6.10
2019-04-10T17:11:05.026Z,4.23
2019-04-10T17:13:40.461Z,2.50
2019-04-10T17:16:09.279Z,2.37
2019-04-10T17:18:37.388Z,2.63
2019-04-10T17:21:05.643Z,2.40
2019-04-10T17:23:34.476Z,2.40
2019-04-10T17:26:03.730Z,2.00
2019-04-10T17:28:32.297Z,2.27
2019-04-10T17:31:00.626Z,2.60
2019-04-10T17:33:28.557Z,2.20
2019-04-10T17:35:57.959Z,1.90
2019-04-10T17:38:26.733Z,2.73
2019-04-10T17:40:57.082Z,2.53
2019-04-10T17:43:25.384Z,2.40
2019-04-10T17:45:55.156Z,1.87
2019-04-10T17:48:23.272Z,2.27
2019-04-10T17:50:51.329Z,2.30
2019-04-10T17:53:19.280Z,2.30
2019-04-10T17:55:47.476Z,2.47
2019-04-10T17:58:15.503Z,2.30
2019-04-10T18:00:45.570Z,2.17
2019-04-10T18:03:17.584Z,2.10
2019-04-10T18:05:43.201Z,2.20
2019-04-10T18:08:11.182Z,2.20
2019-04-10T18:10:44.691Z,2.30
2019-04-10T18:13:09.005Z,2.00
2019-04-10T18:15:37.906Z,2.20
2019-04-10T18:18:07.198Z,2.20
2019-04-10T18:20:35.939Z,2.20
2019-04-10T18:23:04.102Z,2.20
2019-04-10T18:25:32.045Z,2.00
2019-04-10T18:28:01.102Z,2.20
2019-04-10T18:30:31.584Z,2.03
2019-04-10T18:32:58.944Z,2.07
2019-04-10T18:35:27.433Z,2.37
2019-04-10T18:37:55.474Z,2.50
2019-04-10T18:40:23.555Z,2.37
2019-04-10T18:42:51.670Z,2.20
2019-04-10T18:45:19.813Z,2.00
2019-04-10T18:47:48.156Z,2.27
2019-04-10T18:50:16.459Z,2.40
2019-04-10T18:52:45.522Z,2.23
2019-04-10T18:55:14.261Z,2.20
2019-04-10T18:57:43.200Z,2.07
2019-04-10T19:00:46.185Z,2.33
2019-04-10T19:03:29.890Z,2.13
2019-04-10T19:06:00.472Z,2.40
2019-04-10T19:08:28.516Z,2.40
2019-04-10T19:11:17.074Z,2.20
2019-04-10T19:13:26.677Z,2.23
2019-04-10T19:15:55.398Z,2.43
2019-04-10T19:18:23.758Z,2.33
2019-04-10T19:20:51.785Z,2.57
2019-04-10T19:23:19.822Z,2.37
2019-04-10T19:25:49.083Z,2.40
2019-04-10T19:28:28.880Z,2.10
2019-04-10T19:30:53.106Z,2.07
2019-04-10T19:33:21.833Z,2.63
2019-04-10T19:35:50.935Z,2.40
2019-04-10T19:38:19.068Z,2.20
2019-04-10T19:40:47.915Z,2.43
2019-04-10T19:43:16.025Z,2.30
2019-04-10T19:45:44.022Z,2.20
2019-04-10T19:48:12.031Z,2.23
2019-04-10T19:50:40.177Z,2.60
2019-04-10T19:53:09.007Z,2.53
2019-04-10T19:55:37.982Z,2.10
2019-04-10T19:58:06.057Z,2.50
2019-04-10T20:00:36.747Z,2.40
2019-04-10T20:03:05.701Z,2.27
2019-04-10T20:05:34.023Z,2.23
2019-04-10T20:08:02.078Z,2.53
2019-04-10T20:10:31.151Z,2.40
2019-04-10T20:12:59.464Z,1.90
2019-04-10T20:15:28.693Z,2.10
2019-04-10T20:17:57.063Z,2.40
2019-04-10T20:20:25.120Z,2.40
2019-04-10T20:22:53.582Z,2.50
2019-04-10T20:25:21.932Z,2.33
2019-04-10T20:27:50.244Z,2.37
2019-04-10T20:30:20.540Z,2.20
2019-04-10T20:32:48.508Z,2.10
2019-04-10T20:35:16.508Z,2.30
2019-04-10T20:37:44.994Z,2.40
2019-04-10T20:40:13.890Z,2.40
2019-04-10T20:42:42.631Z,2.50
2019-04-10T20:45:11.390Z,2.00
2019-04-10T20:47:39.603Z,2.40
2019-04-10T20:50:07.915Z,2.40
2019-04-10T20:52:39.093Z,2.37
2019-04-10T20:55:05.740Z,2.33
2019-04-10T20:57:33.880Z,2.80
2019-04-10T21:00:02.137Z,2.30
2019-04-10T21:02:30.705Z,2.23
2019-04-10T21:05:04.912Z,2.30
2019-04-10T21:07:29.757Z,2.30
2019-04-10T21:09:58.737Z,3.10
2019-04-10T21:12:27.911Z,2.40
2019-04-10T21:14:56.705Z,3.20
2019-04-10T21:17:24.896Z,2.30
2019-04-10T21:19:53.755Z,2.77
2019-04-10T21:22:22.397Z,2.40
2019-04-10T21:24:50.488Z,2.70
2019-04-10T21:27:18.618Z,2.37
2019-04-10T21:29:52.699Z,2.90
2019-04-10T21:32:30.343Z,2.20
2019-04-10T21:34:59.746Z,2.47
2019-04-10T21:37:28.473Z,2.77
2019-04-10T21:39:56.552Z,1.90
2019-04-10T21:42:26.708Z,2.50
2019-04-10T21:44:55.423Z,2.30
2019-04-10T21:47:23.658Z,2.40
2019-04-10T21:49:53.296Z,1.93
2019-04-10T21:52:21.437Z,2.20
2019-04-10T21:54:53.898Z,2.17
2019-04-10T21:57:20.221Z,1.90
2019-04-10T21:59:48.264Z,1.83
2019-04-10T22:02:17.381Z,2.10
2019-04-10T22:04:45.570Z,2.40
2019-04-10T22:07:41.999Z,2.00
2019-04-10T22:10:36.309Z,2.20
2019-04-10T22:13:05.785Z,1.93
2019-04-10T22:15:41.991Z,2.27
2019-04-10T22:18:09.925Z,2.40
2019-04-10T22:20:38.036Z,2.13
2019-04-10T22:23:06.015Z,2.37
2019-04-10T22:25:33.978Z,2.40
2019-04-10T22:28:04.174Z,2.20
2019-04-10T22:30:32.922Z,2.13
2019-04-10T22:33:00.918Z,2.20
2019-04-10T22:35:28.916Z,2.17
2019-04-10T22:37:56.895Z,2.20
2019-04-10T22:40:25.668Z,2.10
2019-04-10T22:42:53.959Z,2.30
2019-04-10T22:45:27.838Z,2.20
2019-04-10T22:47:56.464Z,2.40
2019-04-10T22:50:27.353Z,2.30
2019-04-10T22:52:55.603Z,2.30
2019-04-10T22:55:23.892Z,2.03
2019-04-10T22:57:52.706Z,1.90
2019-04-10T23:00:33.544Z,2.10
2019-04-10T23:03:02.882Z,1.90
2019-04-10T23:05:32.261Z,2.10
2019-04-10T23:08:01.141Z,2.10
2019-04-10T23:10:29.234Z,2.10
2019-04-10T23:13:01.317Z,1.97
2019-04-10T23:15:27.287Z,2.00
2019-04-10T23:17:55.618Z,2.10
2019-04-10T23:20:24.143Z,2.03
2019-04-10T23:22:52.612Z,2.30
2019-04-10T23:25:20.763Z,2.30
2019-04-10T23:27:51.468Z,2.00
2019-04-10T23:30:19.785Z,1.80
2019-04-10T23:32:47.935Z,2.10
2019-04-10T23:35:17.013Z,2.20
2019-04-10T23:37:45.309Z,2.27
2019-04-10T23:40:13.520Z,2.00
2019-04-10T23:42:41.431Z,2.10
2019-04-10T23:45:09.347Z,2.00
2019-04-10T23:47:37.282Z,2.10
2019-04-10T23:50:06.052Z,2.20
2019-04-10T23:52:34.279Z,1.83
2019-04-10T23:55:02.260Z,2.10
2019-04-10T23:57:31.466Z,1.97
2019-04-10T23:59:59.514Z,2.07
